AVA225 SAWC-SAZS
Flight info
| Callsign | AVA225 |
|---|---|
| Flight time | N/A |
| Altitude | 36000 |
| Route | OGTUR1C OGTUR UT659 DAKAX UT658 ESQ UZ108 TORES TORES2Q |
| Aircraft | A320/M-SDE3FGHIRWY/LB1 |
Departure
| Time | N/A |
|---|---|
| Airport | El Calafate - Commander Armando Tola International Airport (SAWC) |
Arrival
| Time | 2026-04-28 22:35 |
|---|---|
| Airport | Teniente Luis Candelaria International Airport (SAZS) |
| Time | Latitude | Longitude | Altitude | Speed | Heading |
|---|---|---|---|---|---|
| 2026-04-28 21:23 | -49.25111 | -71.87297 | 25203 ft | 453 kts | 9° |
| 2026-04-28 21:23 | -49.22032 | -71.86266 | 25520 ft | 455 kts | 9° |
| 2026-04-28 21:23 | -49.18945 | -71.85237 | 25835 ft | 456 kts | 9° |
| 2026-04-28 21:23 | -49.15846 | -71.84206 | 26139 ft | 457 kts | 9° |
| 2026-04-28 21:24 | -49.12738 | -71.83174 | 26433 ft | 459 kts | 9° |
| 2026-04-28 21:24 | -49.09622 | -71.82137 | 26727 ft | 460 kts | 9° |
| 2026-04-28 21:24 | -49.06496 | -71.81095 | 27015 ft | 461 kts | 9° |
| 2026-04-28 21:24 | -49.03364 | -71.80051 | 27365 ft | 461 kts | 9° |
| 2026-04-28 21:25 | -49.00240 | -71.79016 | 27783 ft | 459 kts | 8° |
| 2026-04-28 21:25 | -48.97133 | -71.77991 | 28186 ft | 457 kts | 8° |
| 2026-04-28 21:25 | -48.94035 | -71.76970 | 28574 ft | 456 kts | 8° |
| 2026-04-28 21:25 | -48.90952 | -71.75953 | 28971 ft | 454 kts | 8° |
| 2026-04-28 21:26 | -48.87875 | -71.74942 | 29341 ft | 452 kts | 8° |
| 2026-04-28 21:26 | -48.84812 | -71.73943 | 29719 ft | 450 kts | 8° |
| 2026-04-28 21:26 | -48.81757 | -71.72965 | 30085 ft | 449 kts | 7° |
| 2026-04-28 21:26 | -48.78714 | -71.72002 | 30429 ft | 448 kts | 7° |
| 2026-04-28 21:27 | -48.75669 | -71.71041 | 30716 ft | 448 kts | 7° |
| 2026-04-28 21:27 | -48.72621 | -71.70080 | 30981 ft | 449 kts | 7° |
| 2026-04-28 21:27 | -48.69569 | -71.69111 | 31252 ft | 449 kts | 7° |
| 2026-04-28 21:27 | -48.66517 | -71.68137 | 31537 ft | 450 kts | 7° |
| 2026-04-28 21:28 | -48.63461 | -71.67167 | 31814 ft | 450 kts | 7° |
| 2026-04-28 21:28 | -48.60401 | -71.66199 | 32082 ft | 450 kts | 7° |
| 2026-04-28 21:28 | -48.57343 | -71.65235 | 32333 ft | 451 kts | 7° |
| 2026-04-28 21:28 | -48.54277 | -71.64271 | 32595 ft | 451 kts | 7° |
| 2026-04-28 21:29 | -48.51210 | -71.63307 | 32856 ft | 451 kts | 7° |
| 2026-04-28 21:29 | -48.48140 | -71.62344 | 33111 ft | 452 kts | 7° |
| 2026-04-28 21:29 | -48.45068 | -71.61381 | 33370 ft | 452 kts | 7° |
| 2026-04-28 21:29 | -48.41994 | -71.60420 | 33617 ft | 452 kts | 7° |
| 2026-04-28 21:30 | -48.38916 | -71.59460 | 33856 ft | 453 kts | 7° |
| 2026-04-28 21:30 | -48.35835 | -71.58495 | 34084 ft | 454 kts | 7° |
| 2026-04-28 21:30 | -48.32751 | -71.57527 | 34327 ft | 454 kts | 7° |
| 2026-04-28 21:30 | -48.29662 | -71.56557 | 34555 ft | 455 kts | 7° |
| 2026-04-28 21:31 | -48.26572 | -71.55590 | 34767 ft | 455 kts | 7° |
| 2026-04-28 21:31 | -48.23476 | -71.54625 | 34966 ft | 456 kts | 7° |
| 2026-04-28 21:31 | -48.20373 | -71.53658 | 35151 ft | 457 kts | 7° |
| 2026-04-28 21:31 | -48.17260 | -71.52688 | 35218 ft | 460 kts | 7° |
| 2026-04-28 21:32 | -48.10987 | -71.50734 | 35221 ft | 462 kts | 7° |
| 2026-04-28 21:32 | -48.04698 | -71.48793 | 35222 ft | 463 kts | 7° |
| 2026-04-28 21:33 | -47.98394 | -71.46994 | 35222 ft | 461 kts | 4° |
| 2026-04-28 21:33 | -47.92101 | -71.45536 | 35222 ft | 459 kts | 3° |
| 2026-04-28 21:34 | -47.85810 | -71.44147 | 35228 ft | 459 kts | 4° |
| 2026-04-28 21:34 | -47.79517 | -71.42704 | 35229 ft | 460 kts | 4° |
| 2026-04-28 21:35 | -47.73216 | -71.41210 | 35230 ft | 459 kts | 4° |
| 2026-04-28 21:35 | -47.66920 | -71.39710 | 35231 ft | 459 kts | 4° |
| 2026-04-28 21:36 | -47.60623 | -71.38218 | 35232 ft | 459 kts | 4° |
| 2026-04-28 21:36 | -47.54332 | -71.36739 | 35234 ft | 459 kts | 4° |
| 2026-04-28 21:37 | -47.48039 | -71.35275 | 35234 ft | 458 kts | 4° |
| 2026-04-28 21:37 | -47.41751 | -71.33812 | 35230 ft | 458 kts | 4° |
| 2026-04-28 21:38 | -47.35471 | -71.32343 | 35229 ft | 458 kts | 4° |
| 2026-04-28 21:38 | -47.29201 | -71.30886 | 35227 ft | 457 kts | 4° |
| 2026-04-28 21:39 | -47.22939 | -71.29448 | 35227 ft | 456 kts | 4° |
| 2026-04-28 21:39 | -47.16752 | -71.28025 | 35225 ft | 455 kts | 4° |
| 2026-04-28 21:40 | -47.10506 | -71.26580 | 35222 ft | 455 kts | 4° |
| 2026-04-28 21:40 | -47.04272 | -71.25142 | 35218 ft | 454 kts | 4° |
| 2026-04-28 21:41 | -46.98038 | -71.23710 | 35216 ft | 454 kts | 4° |
| 2026-04-28 21:41 | -46.91808 | -71.22291 | 35216 ft | 454 kts | 4° |
| 2026-04-28 21:42 | -46.85581 | -71.20875 | 35216 ft | 453 kts | 4° |
| 2026-04-28 21:42 | -46.79363 | -71.19452 | 35213 ft | 453 kts | 4° |
| 2026-04-28 21:43 | -46.73158 | -71.18034 | 35212 ft | 453 kts | 4° |
| 2026-04-28 21:43 | -46.66946 | -71.16635 | 35211 ft | 453 kts | 4° |
| 2026-04-28 21:44 | -46.60735 | -71.15238 | 35206 ft | 452 kts | 4° |
| 2026-04-28 21:44 | -46.54531 | -71.13839 | 35202 ft | 452 kts | 4° |
| 2026-04-28 21:45 | -46.48336 | -71.12448 | 35200 ft | 452 kts | 4° |
| 2026-04-28 21:45 | -46.42130 | -71.11057 | 35200 ft | 452 kts | 4° |
| 2026-04-28 21:46 | -46.35925 | -71.09667 | 35202 ft | 452 kts | 4° |
| 2026-04-28 21:46 | -46.29724 | -71.08275 | 35202 ft | 452 kts | 4° |
| 2026-04-28 21:47 | -46.23523 | -71.06893 | 35199 ft | 452 kts | 4° |
| 2026-04-28 21:47 | -46.17323 | -71.05520 | 35197 ft | 451 kts | 4° |
| 2026-04-28 21:48 | -46.11129 | -71.04143 | 35194 ft | 451 kts | 4° |
| 2026-04-28 21:48 | -46.04939 | -71.02769 | 35195 ft | 451 kts | 4° |
| 2026-04-28 21:49 | -45.98759 | -71.01409 | 35194 ft | 450 kts | 3° |
| 2026-04-28 21:49 | -45.92574 | -71.00051 | 35192 ft | 450 kts | 3° |
| 2026-04-28 21:50 | -45.86394 | -70.98692 | 35195 ft | 450 kts | 3° |
| 2026-04-28 21:50 | -45.80214 | -70.97328 | 35196 ft | 450 kts | 3° |
| 2026-04-28 21:51 | -45.74036 | -70.95964 | 35197 ft | 450 kts | 3° |
| 2026-04-28 21:51 | -45.67858 | -70.94617 | 35201 ft | 450 kts | 3° |
| 2026-04-28 21:52 | -45.61699 | -70.93280 | 35206 ft | 450 kts | 3° |
| 2026-04-28 21:52 | -45.55521 | -70.91941 | 35207 ft | 450 kts | 3° |
| 2026-04-28 21:53 | -45.49340 | -70.90599 | 35210 ft | 450 kts | 3° |
| 2026-04-28 21:53 | -45.43155 | -70.89266 | 35216 ft | 450 kts | 3° |
| 2026-04-28 21:54 | -45.36984 | -70.87928 | 35220 ft | 450 kts | 3° |
| 2026-04-28 21:54 | -45.30795 | -70.86592 | 35224 ft | 450 kts | 3° |
| 2026-04-28 21:55 | -45.24620 | -70.85263 | 35227 ft | 450 kts | 3° |
| 2026-04-28 21:55 | -45.18444 | -70.83937 | 35230 ft | 450 kts | 3° |
| 2026-04-28 21:56 | -45.12263 | -70.82624 | 35237 ft | 450 kts | 2° |
| 2026-04-28 21:56 | -45.06086 | -70.81314 | 35244 ft | 450 kts | 2° |
| 2026-04-28 21:57 | -44.99912 | -70.79993 | 35251 ft | 449 kts | 3° |
| 2026-04-28 21:57 | -44.93744 | -70.78664 | 35260 ft | 449 kts | 2° |
| 2026-04-28 21:58 | -44.87577 | -70.77354 | 35273 ft | 449 kts | 2° |
| 2026-04-28 21:58 | -44.81413 | -70.76080 | 35265 ft | 447 kts | 359° |
| 2026-04-28 21:59 | -44.78337 | -70.75999 | 35297 ft | 437 kts | 349° |
| 2026-04-28 22:00 | -44.69352 | -70.77656 | 35293 ft | 435 kts | 347° |
| 2026-04-28 22:00 | -44.63351 | -70.78727 | 35294 ft | 436 kts | 347° |
| 2026-04-28 22:01 | -44.57340 | -70.79813 | 35299 ft | 436 kts | 347° |
| 2026-04-28 22:01 | -44.51334 | -70.80922 | 35301 ft | 436 kts | 347° |
| 2026-04-28 22:02 | -44.45325 | -70.82034 | 35306 ft | 436 kts | 347° |
| 2026-04-28 22:02 | -44.39313 | -70.83138 | 35310 ft | 437 kts | 347° |
| 2026-04-28 22:03 | -44.33299 | -70.84243 | 35318 ft | 437 kts | 347° |
| 2026-04-28 22:03 | -44.27314 | -70.85336 | 35325 ft | 437 kts | 347° |
| 2026-04-28 22:04 | -44.21292 | -70.86430 | 35335 ft | 437 kts | 347° |
| 2026-04-28 22:04 | -44.15273 | -70.87520 | 35341 ft | 437 kts | 347° |
| 2026-04-28 22:05 | -44.09248 | -70.88609 | 35349 ft | 438 kts | 347° |
| 2026-04-28 22:05 | -44.03219 | -70.89700 | 35356 ft | 438 kts | 347° |
| 2026-04-28 22:06 | -43.97192 | -70.90787 | 35359 ft | 438 kts | 346° |
| 2026-04-28 22:06 | -43.91152 | -70.91876 | 35350 ft | 439 kts | 346° |
| 2026-04-28 22:07 | -43.85092 | -70.92969 | 35357 ft | 441 kts | 346° |
| 2026-04-28 22:07 | -43.79015 | -70.94065 | 35367 ft | 442 kts | 346° |
| 2026-04-28 22:08 | -43.72927 | -70.95156 | 35368 ft | 443 kts | 346° |
| 2026-04-28 22:08 | -43.66818 | -70.96243 | 35377 ft | 444 kts | 346° |
| 2026-04-28 22:09 | -43.60699 | -70.97330 | 35382 ft | 445 kts | 346° |
| 2026-04-28 22:09 | -43.54569 | -70.98425 | 35388 ft | 445 kts | 346° |
| 2026-04-28 22:10 | -43.48443 | -70.99522 | 35393 ft | 446 kts | 346° |
| 2026-04-28 22:10 | -43.42291 | -71.00622 | 35396 ft | 447 kts | 346° |
| 2026-04-28 22:11 | -43.36132 | -71.01720 | 35402 ft | 448 kts | 346° |
| 2026-04-28 22:11 | -43.29960 | -71.02808 | 35405 ft | 448 kts | 346° |
| 2026-04-28 22:12 | -43.23780 | -71.03885 | 35408 ft | 449 kts | 346° |
| 2026-04-28 22:12 | -43.17594 | -71.04967 | 35403 ft | 449 kts | 346° |
| 2026-04-28 22:13 | -43.11415 | -71.06048 | 35408 ft | 450 kts | 346° |
| 2026-04-28 22:13 | -43.05213 | -71.07135 | 35414 ft | 450 kts | 346° |
| 2026-04-28 22:14 | -42.99024 | -71.08219 | 35417 ft | 451 kts | 346° |
| 2026-04-28 22:14 | -42.92805 | -71.09308 | 35415 ft | 452 kts | 346° |
| 2026-04-28 22:15 | -42.86538 | -71.10151 | 35412 ft | 457 kts | 351° |
| 2026-04-28 22:15 | -42.80192 | -71.10492 | 35410 ft | 458 kts | 351° |
| 2026-04-28 22:16 | -42.73834 | -71.10811 | 35411 ft | 458 kts | 351° |
| 2026-04-28 22:16 | -42.67505 | -71.11147 | 35412 ft | 459 kts | 351° |
| 2026-04-28 22:17 | -42.61130 | -71.11487 | 35412 ft | 459 kts | 351° |
| 2026-04-28 22:17 | -42.54744 | -71.11820 | 35417 ft | 460 kts | 351° |
| 2026-04-28 22:18 | -42.48351 | -71.12156 | 35421 ft | 461 kts | 350° |
| 2026-04-28 22:18 | -42.41949 | -71.12496 | 35282 ft | 462 kts | 350° |
| 2026-04-28 22:18 | -42.38738 | -71.12667 | 34489 ft | 464 kts | 350° |
| 2026-04-28 22:19 | -42.35503 | -71.12841 | 33593 ft | 468 kts | 350° |
| 2026-04-28 22:19 | -42.32244 | -71.13017 | 32621 ft | 472 kts | 350° |
| 2026-04-28 22:19 | -42.28949 | -71.13193 | 31636 ft | 477 kts | 350° |
| 2026-04-28 22:19 | -42.25651 | -71.13361 | 30841 ft | 474 kts | 350° |
| 2026-04-28 22:20 | -42.22381 | -71.13520 | 29451 ft | 471 kts | 350° |
| 2026-04-28 22:20 | -42.19090 | -71.13690 | 28252 ft | 476 kts | 349° |
| 2026-04-28 22:20 | -42.15775 | -71.13869 | 27077 ft | 480 kts | 349° |
| 2026-04-28 22:20 | -42.12433 | -71.14049 | 25961 ft | 481 kts | 349° |
| 2026-04-28 22:21 | -42.09120 | -71.14218 | 24318 ft | 480 kts | 349° |
| 2026-04-28 22:21 | -42.05768 | -71.14394 | 23307 ft | 481 kts | 349° |
| 2026-04-28 22:21 | -42.02483 | -71.14549 | 22674 ft | 470 kts | 349° |
| 2026-04-28 22:21 | -41.99234 | -71.14699 | 21803 ft | 465 kts | 348° |
| 2026-04-28 22:22 | -41.96034 | -71.14853 | 21019 ft | 458 kts | 348° |
| 2026-04-28 22:22 | -41.92877 | -71.15011 | 20257 ft | 451 kts | 348° |
| 2026-04-28 22:22 | -41.89767 | -71.15173 | 19512 ft | 446 kts | 347° |
| 2026-04-28 22:22 | -41.86694 | -71.15335 | 18778 ft | 440 kts | 347° |
| 2026-04-28 22:23 | -41.83658 | -71.15495 | 18080 ft | 435 kts | 347° |
| 2026-04-28 22:23 | -41.80658 | -71.15655 | 17401 ft | 430 kts | 347° |
| 2026-04-28 22:23 | -41.77694 | -71.15815 | 16764 ft | 423 kts | 348° |
| 2026-04-28 22:23 | -41.74784 | -71.15983 | 16125 ft | 417 kts | 347° |
| 2026-04-28 22:24 | -41.71853 | -71.15624 | 15472 ft | 436 kts | 3° |
| 2026-04-28 22:24 | -41.68984 | -71.14146 | 14637 ft | 452 kts | 17° |
| 2026-04-28 22:24 | -41.66224 | -71.12228 | 13281 ft | 448 kts | 18° |
| 2026-04-28 22:24 | -41.63463 | -71.10244 | 12508 ft | 448 kts | 19° |
| 2026-04-28 22:25 | -41.60766 | -71.08267 | 11943 ft | 440 kts | 19° |
| 2026-04-28 22:25 | -41.58093 | -71.06316 | 11185 ft | 438 kts | 18° |
| 2026-04-28 22:25 | -41.55457 | -71.04413 | 10720 ft | 420 kts | 19° |
| 2026-04-28 22:25 | -41.52995 | -71.02633 | 10442 ft | 387 kts | 19° |
| 2026-04-28 22:26 | -41.50696 | -71.00983 | 10274 ft | 369 kts | 18° |
| 2026-04-28 22:26 | -41.48489 | -70.99412 | 10129 ft | 352 kts | 18° |
| 2026-04-28 22:26 | -41.46376 | -70.97913 | 10012 ft | 339 kts | 18° |
| 2026-04-28 22:26 | -41.44331 | -70.96478 | 9896 ft | 326 kts | 17° |
| 2026-04-28 22:27 | -41.42364 | -70.95104 | 9756 ft | 314 kts | 17° |
| 2026-04-28 22:27 | -41.40465 | -70.93779 | 9594 ft | 305 kts | 17° |
| 2026-04-28 22:27 | -41.38608 | -70.92482 | 9390 ft | 298 kts | 17° |
| 2026-04-28 22:27 | -41.36781 | -70.91205 | 9155 ft | 298 kts | 18° |
| 2026-04-28 22:28 | -41.34931 | -70.89923 | 8548 ft | 304 kts | 18° |
| 2026-04-28 22:28 | -41.33071 | -70.88628 | 8235 ft | 300 kts | 18° |
| 2026-04-28 22:28 | -41.31227 | -70.87329 | 7808 ft | 301 kts | 19° |
| 2026-04-28 22:28 | -41.29416 | -70.86075 | 7605 ft | 287 kts | 14° |
| 2026-04-28 22:29 | -41.27567 | -70.85683 | 7410 ft | 257 kts | 345° |
| 2026-04-28 22:29 | -41.25984 | -70.86380 | 7245 ft | 229 kts | 322° |
| 2026-04-28 22:29 | -41.24861 | -70.87775 | 7029 ft | 218 kts | 302° |
| 2026-04-28 22:29 | -41.24179 | -70.89561 | 6767 ft | 218 kts | 294° |
| 2026-04-28 22:30 | -41.23561 | -70.91390 | 6462 ft | 215 kts | 294° |
| 2026-04-28 22:30 | -41.22951 | -70.93160 | 6201 ft | 207 kts | 294° |
| 2026-04-28 22:30 | -41.22370 | -70.94835 | 5939 ft | 194 kts | 295° |
| 2026-04-28 22:30 | -41.21827 | -70.96402 | 5682 ft | 187 kts | 294° |
| 2026-04-28 22:31 | -41.21312 | -70.97901 | 5479 ft | 172 kts | 295° |
| 2026-04-28 22:31 | -41.20835 | -70.99286 | 5239 ft | 159 kts | 295° |
| 2026-04-28 22:31 | -41.20389 | -71.00570 | 5030 ft | 149 kts | 295° |
| 2026-04-28 22:31 | -41.19972 | -71.01772 | 4852 ft | 141 kts | 294° |
| 2026-04-28 22:32 | -41.19575 | -71.02923 | 4676 ft | 135 kts | 295° |
| 2026-04-28 22:32 | -41.19187 | -71.04050 | 4497 ft | 131 kts | 296° |
| 2026-04-28 22:32 | -41.18807 | -71.05138 | 4313 ft | 130 kts | 296° |
| 2026-04-28 22:32 | -41.18426 | -71.06236 | 4150 ft | 132 kts | 295° |
| 2026-04-28 22:33 | -41.18047 | -71.07330 | 3969 ft | 130 kts | 295° |
| 2026-04-28 22:33 | -41.17671 | -71.08414 | 3796 ft | 129 kts | 295° |
| 2026-04-28 22:33 | -41.17297 | -71.09490 | 3622 ft | 129 kts | 295° |
| 2026-04-28 22:33 | -41.16923 | -71.10569 | 3453 ft | 130 kts | 295° |
| 2026-04-28 22:34 | -41.16546 | -71.11654 | 3278 ft | 130 kts | 295° |
| 2026-04-28 22:34 | -41.16168 | -71.12746 | 3106 ft | 130 kts | 295° |
| 2026-04-28 22:34 | -41.15789 | -71.13837 | 2936 ft | 131 kts | 295° |
| 2026-04-28 22:34 | -41.15414 | -71.14926 | 2757 ft | 123 kts | 294° |
| 2026-04-28 22:35 | -41.15152 | -71.15671 | 2750 ft | 58 kts | 294° |
| 2026-04-28 22:35 | -41.15018 | -71.16043 | 2755 ft | 26 kts | 296° |
| 2026-04-28 22:35 | -41.14970 | -71.16176 | 2754 ft | 16 kts | 294° |
| 2026-04-28 22:35 | -41.14923 | -71.16302 | 2754 ft | 14 kts | 309° |
| 2026-04-28 22:36 | -41.14842 | -71.16309 | 2751 ft | 0 kts | 21° |
| 2026-04-28 22:36 | -41.14840 | -71.16308 | 2751 ft | 0 kts | 22° |
| 2026-04-28 22:37 | -41.14837 | -71.16306 | 2751 ft | 2 kts | 23° |
| 2026-04-28 22:37 | -41.14821 | -71.16296 | 2750 ft | 4 kts | 24° |
| 2026-04-28 22:38 | -41.14812 | -71.16291 | 2750 ft | 4 kts | 24° |